createdAt,value
2023-05-05T00:02:54.087Z,48.55
2023-05-05T00:08:01.433Z,49.06
2023-05-05T00:13:08.689Z,48.78
2023-05-05T00:18:16.916Z,49.43
2023-05-05T00:23:24.021Z,49.38
2023-05-05T00:28:31.838Z,49.33
2023-05-05T00:33:39.105Z,49.77
2023-05-05T00:38:47.440Z,50.16
2023-05-05T00:43:54.698Z,50.48
2023-05-05T00:49:02.625Z,50.20
2023-05-05T00:54:09.869Z,50.97
2023-05-05T00:59:17.175Z,51.12
2023-05-05T01:04:24.717Z,51.68
2023-05-05T01:09:40.229Z,52.06
2023-05-05T01:14:54.790Z,52.03
2023-05-05T01:20:12.796Z,52.14
2023-05-05T01:25:51.424Z,52.40
2023-05-05T01:31:23.524Z,52.43
2023-05-05T01:36:38.194Z,52.35
2023-05-05T01:41:49.877Z,52.90
2023-05-05T01:46:59.994Z,53.09
2023-05-05T01:52:08.865Z,53.22
2023-05-05T01:57:17.113Z,53.15
2023-05-05T02:02:27.297Z,53.29
2023-05-05T02:07:36.321Z,53.37
2023-05-05T02:12:45.260Z,53.35
2023-05-05T02:17:55.204Z,53.50
2023-05-05T02:23:02.612Z,53.61
2023-05-05T02:28:15.124Z,53.32
2023-05-05T02:33:25.503Z,53.61
2023-05-05T02:38:34.587Z,53.93
2023-05-05T02:43:44.241Z,53.67
2023-05-05T02:48:51.790Z,53.97
2023-05-05T02:53:59.330Z,54.08
2023-05-05T02:59:16.619Z,54.36
2023-05-05T03:04:28.567Z,54.39
2023-05-05T03:09:43.477Z,54.30
2023-05-05T03:14:53.547Z,54.49
2023-05-05T03:20:03.462Z,54.77
2023-05-05T03:25:13.177Z,54.92
2023-05-05T03:30:21.488Z,54.91
2023-05-05T03:35:30.965Z,55.00
2023-05-05T03:40:44.107Z,55.30
2023-05-05T03:45:54.731Z,55.67
2023-05-05T03:51:02.356Z,55.62
2023-05-05T03:56:11.168Z,55.57
2023-05-05T04:01:18.541Z,55.81
2023-05-05T04:06:26.384Z,56.29
2023-05-05T04:11:35.419Z,56.25
2023-05-05T04:16:42.996Z,56.71
2023-05-05T04:21:51.565Z,56.62
2023-05-05T04:26:58.830Z,56.57
2023-05-05T04:32:07.666Z,56.75
2023-05-05T04:37:15.191Z,56.93
2023-05-05T04:42:22.491Z,57.01
2023-05-05T04:47:30.282Z,57.09
2023-05-05T04:52:38.124Z,57.30
2023-05-05T04:57:45.448Z,57.35
2023-05-05T05:02:52.869Z,57.38
2023-05-05T05:08:00.169Z,57.51
2023-05-05T05:13:07.462Z,57.56
2023-05-05T05:18:16.074Z,57.50
2023-05-05T05:23:23.442Z,57.46
2023-05-05T05:28:31.630Z,57.56
2023-05-05T05:33:39.072Z,57.60
2023-05-05T05:38:46.685Z,57.64
2023-05-05T05:43:54.221Z,57.64
2023-05-05T05:49:04.320Z,57.66
2023-05-05T05:54:11.889Z,57.58
2023-05-05T05:59:19.898Z,57.64
2023-05-05T06:04:27.272Z,57.52
2023-05-05T06:09:35.648Z,57.42
2023-05-05T06:14:43.116Z,57.18
2023-05-05T06:19:54.078Z,57.30
2023-05-05T06:25:02.255Z,57.05
2023-05-05T06:30:11.936Z,56.87
2023-05-05T06:35:19.379Z,56.77
2023-05-05T06:40:26.692Z,56.86
2023-05-05T06:45:35.025Z,56.28
2023-05-05T06:50:42.713Z,55.91
2023-05-05T06:55:50.756Z,55.75
2023-05-05T07:00:58.153Z,55.55
2023-05-05T07:06:05.624Z,55.59
2023-05-05T07:11:13.057Z,55.44
2023-05-05T07:16:20.397Z,55.20
2023-05-05T07:21:28.009Z,54.75
2023-05-05T07:26:35.657Z,54.19
2023-05-05T07:31:42.997Z,54.20
2023-05-05T07:36:50.311Z,54.32
2023-05-05T07:41:58.033Z,54.04
2023-05-05T07:47:05.175Z,53.71
2023-05-05T07:52:12.897Z,53.43
2023-05-05T07:57:20.368Z,53.18
2023-05-05T08:02:27.695Z,52.72
2023-05-05T08:07:36.852Z,52.25
2023-05-05T08:12:44.137Z,51.89
2023-05-05T08:17:54.709Z,50.57
2023-05-05T08:23:01.971Z,49.71
2023-05-05T08:28:09.276Z,49.04
2023-05-05T08:33:16.751Z,48.81
2023-05-05T08:38:24.250Z,48.57
2023-05-05T08:43:31.495Z,48.52
2023-05-05T08:48:41.836Z,48.39
2023-05-05T08:53:58.581Z,48.09
2023-05-05T08:59:06.404Z,47.37
2023-05-05T09:04:13.983Z,47.16
2023-05-05T09:09:21.993Z,47.03
2023-05-05T09:20:08.229Z,46.63
2023-05-05T09:25:16.962Z,46.47
2023-05-05T09:30:28.308Z,46.42
2023-05-05T09:35:52.372Z,46.27
2023-05-05T09:40:59.648Z,46.22
2023-05-05T09:46:13.461Z,46.07
2023-05-05T09:51:32.252Z,45.96
2023-05-05T09:56:43.259Z,45.27
2023-05-05T10:01:51.036Z,45.21
2023-05-05T10:06:59.204Z,44.98
2023-05-05T10:12:07.679Z,44.52
2023-05-05T10:17:17.156Z,44.81
2023-05-05T10:22:26.993Z,44.73
2023-05-05T10:27:41.706Z,44.17
2023-05-05T10:33:00.899Z,43.59
2023-05-05T10:38:16.799Z,43.36
2023-05-05T10:43:25.170Z,43.62
2023-05-05T10:48:37.824Z,43.33
2023-05-05T10:53:53.934Z,42.88
2023-05-05T10:59:01.965Z,43.02
2023-05-05T11:04:22.840Z,43.19
2023-05-05T11:09:33.639Z,42.71
2023-05-05T11:14:40.827Z,42.18
2023-05-05T11:19:52.633Z,42.36
2023-05-05T11:24:59.775Z,42.44
2023-05-05T11:30:12.425Z,41.94
2023-05-05T11:35:19.872Z,41.47
2023-05-05T11:40:33.131Z,41.36
2023-05-05T11:45:40.809Z,41.34
2023-05-05T11:50:48.202Z,40.59
2023-05-05T11:56:10.251Z,40.31
2023-05-05T12:01:18.302Z,40.05
2023-05-05T12:06:25.638Z,40.03
2023-05-05T12:11:33.034Z,39.84
2023-05-05T12:16:40.230Z,39.63
2023-05-05T12:21:49.124Z,39.85
2023-05-05T12:26:56.469Z,39.91
2023-05-05T12:32:03.807Z,39.69
2023-05-05T12:37:11.094Z,39.36
2023-05-05T12:42:18.683Z,38.91
2023-05-05T12:47:37.110Z,39.06
2023-05-05T12:52:46.881Z,38.68
2023-05-05T12:58:06.144Z,38.28
2023-05-05T13:03:23.636Z,38.16
2023-05-05T13:08:47.145Z,38.60
2023-05-05T13:13:54.655Z,38.37
2023-05-05T13:19:01.436Z,37.78
2023-05-05T13:24:23.411Z,37.55
2023-05-05T13:29:33.641Z,37.34
2023-05-05T13:34:40.913Z,37.64
2023-05-05T13:39:48.188Z,37.26
2023-05-05T13:44:56.003Z,36.75
2023-05-05T13:50:03.272Z,36.54
2023-05-05T13:55:12.177Z,36.20
2023-05-05T14:00:22.416Z,35.93
2023-05-05T14:05:30.870Z,35.97
2023-05-05T14:10:38.260Z,35.93
2023-05-05T14:15:45.811Z,35.89
2023-05-05T14:20:53.317Z,36.19
2023-05-05T14:26:00.540Z,36.23
2023-05-05T14:31:08.105Z,35.90
2023-05-05T14:36:15.892Z,35.66
2023-05-05T14:41:23.182Z,35.61
2023-05-05T14:46:30.703Z,35.57
2023-05-05T14:51:38.268Z,35.12
2023-05-05T14:56:45.801Z,34.82
2023-05-05T15:01:53.112Z,34.75
2023-05-05T15:07:00.741Z,34.66
2023-05-05T15:12:08.861Z,34.61
2023-05-05T15:17:16.368Z,34.49
2023-05-05T15:22:23.728Z,34.59
2023-05-05T15:27:32.251Z,34.49
2023-05-05T15:32:39.549Z,34.25
2023-05-05T15:37:47.497Z,34.28
2023-05-05T15:42:56.296Z,34.08
2023-05-05T15:48:03.988Z,34.13
2023-05-05T15:53:12.552Z,33.93
2023-05-05T15:58:20.121Z,33.69
2023-05-05T16:03:27.520Z,33.99
2023-05-05T16:08:35.133Z,33.66
2023-05-05T16:13:43.015Z,32.99
2023-05-05T16:18:50.357Z,32.83
2023-05-05T16:23:57.735Z,32.82
2023-05-05T16:29:05.212Z,32.92
2023-05-05T16:34:12.418Z,32.95
2023-05-05T16:39:19.824Z,33.02
2023-05-05T16:44:27.137Z,33.19
2023-05-05T16:49:34.373Z,33.28
2023-05-05T16:54:42.016Z,33.17
2023-05-05T16:59:49.782Z,33.27
2023-05-05T17:04:57.299Z,33.34
2023-05-05T17:10:05.334Z,33.03
2023-05-05T17:15:13.619Z,32.56
2023-05-05T17:20:21.204Z,32.52
2023-05-05T17:25:28.423Z,32.82
2023-05-05T17:30:35.552Z,32.94
2023-05-05T17:35:42.867Z,32.67
2023-05-05T17:40:51.028Z,33.32
2023-05-05T17:45:58.520Z,33.28
2023-05-05T17:51:05.949Z,33.42
2023-05-05T17:56:13.293Z,33.54
2023-05-05T18:01:27.241Z,33.32
2023-05-05T18:06:34.414Z,33.42
2023-05-05T18:11:42.608Z,33.75
2023-05-05T18:16:50.881Z,34.11
2023-05-05T18:21:58.768Z,33.88
2023-05-05T18:27:07.024Z,34.23
2023-05-05T18:32:14.274Z,34.07
2023-05-05T18:37:21.569Z,34.42
2023-05-05T18:42:28.808Z,34.45
2023-05-05T18:47:36.234Z,34.72
2023-05-05T18:52:43.923Z,34.65
2023-05-05T18:57:51.322Z,34.94
2023-05-05T19:02:59.729Z,34.90
2023-05-05T19:08:07.191Z,34.97
2023-05-05T19:13:14.752Z,35.08
2023-05-05T19:18:22.182Z,35.21
2023-05-05T19:23:29.581Z,35.50
2023-05-05T19:28:36.876Z,35.48
2023-05-05T19:33:46.052Z,35.63
2023-05-05T19:38:53.809Z,35.90
2023-05-05T19:44:01.552Z,36.07
2023-05-05T19:49:09.021Z,36.15
2023-05-05T19:54:16.464Z,36.48
2023-05-05T19:59:23.753Z,36.53
2023-05-05T20:04:31.129Z,36.45
2023-05-05T20:09:38.785Z,36.58
2023-05-05T20:14:46.293Z,36.77
2023-05-05T20:19:54.673Z,37.02
2023-05-05T20:25:02.106Z,36.78
2023-05-05T20:30:12.208Z,36.92
2023-05-05T20:35:19.749Z,37.14
2023-05-05T20:40:27.194Z,37.22
2023-05-05T20:45:35.168Z,37.41
2023-05-05T20:50:43.146Z,37.19
2023-05-05T20:55:50.998Z,37.35
2023-05-05T21:00:58.312Z,37.47
2023-05-05T21:06:05.982Z,37.68
2023-05-05T21:11:14.060Z,37.81
2023-05-05T21:16:21.526Z,37.63
2023-05-05T21:21:29.020Z,37.92
2023-05-05T21:26:36.244Z,37.94
2023-05-05T21:31:43.763Z,38.11
2023-05-05T21:36:51.827Z,38.02
2023-05-05T21:41:59.090Z,38.00
2023-05-05T21:47:07.230Z,38.23
2023-05-05T21:52:15.076Z,38.33
2023-05-05T21:57:22.355Z,38.42
2023-05-05T22:02:29.762Z,38.60
2023-05-05T22:07:37.547Z,38.46
2023-05-05T22:12:44.817Z,38.58
2023-05-05T22:17:52.363Z,38.73
2023-05-05T22:23:00.165Z,38.90
2023-05-05T22:28:07.801Z,38.94
2023-05-05T22:33:15.127Z,38.98
2023-05-05T22:38:22.288Z,39.31
2023-05-05T22:43:29.433Z,39.44
2023-05-05T22:48:36.875Z,39.55
2023-05-05T22:53:44.260Z,39.49
2023-05-05T22:58:51.553Z,39.43
2023-05-05T23:03:59.099Z,39.61
2023-05-05T23:09:06.248Z,39.66
2023-05-05T23:14:13.710Z,39.73
2023-05-05T23:19:21.636Z,39.81
2023-05-05T23:24:29.005Z,39.98
2023-05-05T23:29:36.265Z,39.89
2023-05-05T23:34:43.527Z,40.06
2023-05-05T23:39:50.736Z,40.10
2023-05-05T23:44:58.078Z,40.22
2023-05-05T23:50:06.113Z,40.33
2023-05-05T23:55:14.895Z,40.61
